sensor_id;sensor_type;location;lat;lon;timestamp;pressure;altitude;pressure_sealevel;temperature;humidity
35848;BME280;22332;51.954;20.118;2023-03-07T00:01:30;98873.59;;;-1.04;83.99
35848;BME280;22332;51.954;20.118;2023-03-07T00:04:36;98876.33;;;-1.01;83.51
35848;BME280;22332;51.954;20.118;2023-03-07T00:07:41;98871.09;;;-0.94;83.71
35848;BME280;22332;51.954;20.118;2023-03-07T00:10:47;98872.38;;;-0.84;83.37
35848;BME280;22332;51.954;20.118;2023-03-07T00:13:53;98874.57;;;-0.72;83.01
35848;BME280;22332;51.954;20.118;2023-03-07T00:16:59;98872.93;;;-0.67;83.07
35848;BME280;22332;51.954;20.118;2023-03-07T00:20:07;98869.25;;;-0.76;82.98
35848;BME280;22332;51.954;20.118;2023-03-07T00:23:14;98875.50;;;-0.85;83.18
35848;BME280;22332;51.954;20.118;2023-03-07T00:26:21;98870.09;;;-0.97;83.28
35848;BME280;22332;51.954;20.118;2023-03-07T00:29:27;98869.55;;;-0.99;83.11
35848;BME280;22332;51.954;20.118;2023-03-07T00:32:33;98867.04;;;-0.96;83.06
35848;BME280;22332;51.954;20.118;2023-03-07T00:35:39;98863.38;;;-0.96;82.89
35848;BME280;22332;51.954;20.118;2023-03-07T00:38:45;98862.48;;;-1.00;82.79
35848;BME280;22332;51.954;20.118;2023-03-07T00:41:51;98865.02;;;-1.04;82.99
35848;BME280;22332;51.954;20.118;2023-03-07T00:44:56;98863.42;;;-1.01;82.64
35848;BME280;22332;51.954;20.118;2023-03-07T00:48:02;98858.77;;;-0.97;82.41
35848;BME280;22332;51.954;20.118;2023-03-07T00:51:10;98859.55;;;-0.96;82.20
35848;BME280;22332;51.954;20.118;2023-03-07T00:54:16;98854.27;;;-0.95;82.12
35848;BME280;22332;51.954;20.118;2023-03-07T00:57:22;98855.90;;;-0.99;82.00
35848;BME280;22332;51.954;20.118;2023-03-07T01:00:27;98855.92;;;-1.04;81.49
35848;BME280;22332;51.954;20.118;2023-03-07T01:03:34;98854.14;;;-1.11;81.35
35848;BME280;22332;51.954;20.118;2023-03-07T01:06:40;98851.23;;;-1.16;81.50
35848;BME280;22332;51.954;20.118;2023-03-07T01:09:50;98851.46;;;-1.22;81.43
35848;BME280;22332;51.954;20.118;2023-03-07T01:12:56;98847.79;;;-1.26;81.40
35848;BME280;22332;51.954;20.118;2023-03-07T01:16:09;98846.48;;;-1.27;81.29
35848;BME280;22332;51.954;20.118;2023-03-07T01:19:17;98845.42;;;-1.27;81.25
35848;BME280;22332;51.954;20.118;2023-03-07T01:22:22;98846.61;;;-1.27;80.94
35848;BME280;22332;51.954;20.118;2023-03-07T01:25:29;98840.48;;;-1.24;81.14
35848;BME280;22332;51.954;20.118;2023-03-07T01:28:34;98836.85;;;-1.15;80.92
35848;BME280;22332;51.954;20.118;2023-03-07T01:31:40;98838.48;;;-1.06;80.78
35848;BME280;22332;51.954;20.118;2023-03-07T01:34:46;98838.11;;;-0.96;80.92
35848;BME280;22332;51.954;20.118;2023-03-07T01:37:53;98837.82;;;-0.90;80.55
35848;BME280;22332;51.954;20.118;2023-03-07T01:41:00;98834.49;;;-0.88;80.61
35848;BME280;22332;51.954;20.118;2023-03-07T01:44:15;98838.30;;;-0.83;80.62
35848;BME280;22332;51.954;20.118;2023-03-07T01:47:21;98840.60;;;-0.79;80.55
35848;BME280;22332;51.954;20.118;2023-03-07T01:50:30;98831.42;;;-0.75;80.36
35848;BME280;22332;51.954;20.118;2023-03-07T01:53:36;98830.77;;;-0.73;80.50
35848;BME280;22332;51.954;20.118;2023-03-07T01:56:43;98834.69;;;-0.70;80.49
35848;BME280;22332;51.954;20.118;2023-03-07T01:59:53;98835.05;;;-0.67;80.46
35848;BME280;22332;51.954;20.118;2023-03-07T02:03:05;98832.77;;;-0.63;80.66
35848;BME280;22332;51.954;20.118;2023-03-07T02:06:17;98833.79;;;-0.63;80.65
35848;BME280;22332;51.954;20.118;2023-03-07T02:09:24;98829.66;;;-0.66;80.74
35848;BME280;22332;51.954;20.118;2023-03-07T02:12:31;98830.30;;;-0.63;81.01
35848;BME280;22332;51.954;20.118;2023-03-07T02:15:37;98829.65;;;-0.59;80.85
35848;BME280;22332;51.954;20.118;2023-03-07T02:18:47;98829.20;;;-0.53;80.90
35848;BME280;22332;51.954;20.118;2023-03-07T02:22:02;98828.23;;;-0.45;80.79
35848;BME280;22332;51.954;20.118;2023-03-07T02:25:13;98829.21;;;-0.41;80.79
35848;BME280;22332;51.954;20.118;2023-03-07T02:28:22;98829.95;;;-0.44;80.37
35848;BME280;22332;51.954;20.118;2023-03-07T02:31:29;98825.98;;;-0.47;80.75
35848;BME280;22332;51.954;20.118;2023-03-07T02:34:35;98823.30;;;-0.40;80.95
35848;BME280;22332;51.954;20.118;2023-03-07T02:37:56;98815.84;;;-0.33;80.65
35848;BME280;22332;51.954;20.118;2023-03-07T02:41:05;98814.58;;;-0.33;80.54
35848;BME280;22332;51.954;20.118;2023-03-07T02:44:12;98812.11;;;-0.46;80.17
35848;BME280;22332;51.954;20.118;2023-03-07T02:47:19;98810.52;;;-0.57;80.25
35848;BME280;22332;51.954;20.118;2023-03-07T02:50:25;98817.19;;;-0.78;80.38
35848;BME280;22332;51.954;20.118;2023-03-07T02:53:31;98818.98;;;-0.93;80.88
35848;BME280;22332;51.954;20.118;2023-03-07T02:56:36;98816.64;;;-0.94;80.90
35848;BME280;22332;51.954;20.118;2023-03-07T02:59:42;98816.08;;;-0.94;81.23
35848;BME280;22332;51.954;20.118;2023-03-07T03:02:48;98815.06;;;-0.83;81.17
35848;BME280;22332;51.954;20.118;2023-03-07T03:05:57;98811.59;;;-0.73;80.81
35848;BME280;22332;51.954;20.118;2023-03-07T03:09:03;98806.98;;;-0.66;81.14
35848;BME280;22332;51.954;20.118;2023-03-07T03:12:10;98812.84;;;-0.55;80.89
35848;BME280;22332;51.954;20.118;2023-03-07T03:15:15;98804.02;;;-0.45;80.95
35848;BME280;22332;51.954;20.118;2023-03-07T03:18:23;98806.66;;;-0.34;80.75
35848;BME280;22332;51.954;20.118;2023-03-07T03:21:31;98805.00;;;-0.24;80.68
35848;BME280;22332;51.954;20.118;2023-03-07T03:24:40;98803.30;;;-0.21;80.38
35848;BME280;22332;51.954;20.118;2023-03-07T03:27:47;98803.51;;;-0.39;79.48
35848;BME280;22332;51.954;20.118;2023-03-07T03:30:59;98804.90;;;-0.66;79.84
35848;BME280;22332;51.954;20.118;2023-03-07T03:34:07;98805.38;;;-0.82;80.27
35848;BME280;22332;51.954;20.118;2023-03-07T03:37:13;98803.14;;;-0.84;80.66
35848;BME280;22332;51.954;20.118;2023-03-07T03:40:20;98800.80;;;-0.79;80.73
35848;BME280;22332;51.954;20.118;2023-03-07T03:43:26;98802.46;;;-0.75;80.73
35848;BME280;22332;51.954;20.118;2023-03-07T03:46:32;98805.66;;;-0.71;80.56
35848;BME280;22332;51.954;20.118;2023-03-07T03:49:38;98804.55;;;-0.68;80.60
35848;BME280;22332;51.954;20.118;2023-03-07T03:52:44;98804.58;;;-0.73;79.81
35848;BME280;22332;51.954;20.118;2023-03-07T03:55:50;98799.27;;;-0.79;80.29
35848;BME280;22332;51.954;20.118;2023-03-07T03:58:56;98794.76;;;-0.68;80.45
35848;BME280;22332;51.954;20.118;2023-03-07T04:02:03;98789.30;;;-0.59;80.57
35848;BME280;22332;51.954;20.118;2023-03-07T04:05:09;98787.23;;;-0.52;80.36
35848;BME280;22332;51.954;20.118;2023-03-07T04:08:15;98777.52;;;-0.46;80.14
35848;BME280;22332;51.954;20.118;2023-03-07T04:11:22;98778.02;;;-0.44;80.04
35848;BME280;22332;51.954;20.118;2023-03-07T04:14:28;98780.86;;;-0.42;80.23
35848;BME280;22332;51.954;20.118;2023-03-07T04:17:35;98779.98;;;-0.42;80.00
35848;BME280;22332;51.954;20.118;2023-03-07T04:20:43;98773.27;;;-0.43;79.84
35848;BME280;22332;51.954;20.118;2023-03-07T04:23:49;98765.98;;;-0.46;79.96
35848;BME280;22332;51.954;20.118;2023-03-07T04:27:00;98768.90;;;-0.50;79.77
35848;BME280;22332;51.954;20.118;2023-03-07T04:30:08;98771.75;;;-0.51;79.98
35848;BME280;22332;51.954;20.118;2023-03-07T04:33:14;98774.98;;;-0.51;79.86
35848;BME280;22332;51.954;20.118;2023-03-07T04:36:21;98775.23;;;-0.59;79.68
35848;BME280;22332;51.954;20.118;2023-03-07T04:39:29;98773.41;;;-0.68;79.75
35848;BME280;22332;51.954;20.118;2023-03-07T04:42:35;98775.45;;;-0.76;79.68
35848;BME280;22332;51.954;20.118;2023-03-07T04:45:41;98775.92;;;-0.78;79.81
35848;BME280;22332;51.954;20.118;2023-03-07T04:48:47;98781.13;;;-0.72;79.70
35848;BME280;22332;51.954;20.118;2023-03-07T04:51:53;98782.59;;;-0.71;79.60
35848;BME280;22332;51.954;20.118;2023-03-07T04:54:59;98781.26;;;-0.65;79.60
35848;BME280;22332;51.954;20.118;2023-03-07T04:58:05;98778.52;;;-0.61;79.46
35848;BME280;22332;51.954;20.118;2023-03-07T05:01:14;98777.11;;;-0.63;79.28
35848;BME280;22332;51.954;20.118;2023-03-07T05:04:21;98781.98;;;-0.67;79.37
35848;BME280;22332;51.954;20.118;2023-03-07T05:07:27;98780.84;;;-0.71;79.28
35848;BME280;22332;51.954;20.118;2023-03-07T05:10:34;98781.65;;;-0.75;79.47
35848;BME280;22332;51.954;20.118;2023-03-07T05:13:41;98781.23;;;-0.78;79.49
35848;BME280;22332;51.954;20.118;2023-03-07T05:16:48;98782.98;;;-0.85;79.38
35848;BME280;22332;51.954;20.118;2023-03-07T05:19:53;98787.48;;;-0.90;79.64
35848;BME280;22332;51.954;20.118;2023-03-07T05:22:59;98785.10;;;-0.90;79.58
35848;BME280;22332;51.954;20.118;2023-03-07T05:26:05;98776.70;;;-0.94;79.37
35848;BME280;22332;51.954;20.118;2023-03-07T05:29:11;98779.64;;;-0.97;79.43
35848;BME280;22332;51.954;20.118;2023-03-07T05:32:17;98775.73;;;-0.96;79.54
35848;BME280;22332;51.954;20.118;2023-03-07T05:35:23;98779.58;;;-0.96;79.50
35848;BME280;22332;51.954;20.118;2023-03-07T05:38:30;98784.15;;;-0.92;79.47
35848;BME280;22332;51.954;20.118;2023-03-07T05:41:37;98789.11;;;-0.84;79.50
35848;BME280;22332;51.954;20.118;2023-03-07T05:44:43;98787.67;;;-0.76;79.58
35848;BME280;22332;51.954;20.118;2023-03-07T05:47:49;98783.91;;;-0.68;79.45
35848;BME280;22332;51.954;20.118;2023-03-07T05:50:59;98781.47;;;-0.59;79.26
35848;BME280;22332;51.954;20.118;2023-03-07T05:54:05;98783.10;;;-0.53;79.14
35848;BME280;22332;51.954;20.118;2023-03-07T05:57:12;98772.54;;;-0.50;79.12
35848;BME280;22332;51.954;20.118;2023-03-07T06:00:20;98771.63;;;-0.49;78.97
35848;BME280;22332;51.954;20.118;2023-03-07T06:03:31;98765.87;;;-0.45;79.03
35848;BME280;22332;51.954;20.118;2023-03-07T06:06:36;98762.80;;;-0.43;78.90
35848;BME280;22332;51.954;20.118;2023-03-07T06:09:43;98759.94;;;-0.42;78.84
35848;BME280;22332;51.954;20.118;2023-03-07T06:12:51;98761.70;;;-0.38;78.91
35848;BME280;22332;51.954;20.118;2023-03-07T06:15:57;98761.12;;;-0.37;78.83
35848;BME280;22332;51.954;20.118;2023-03-07T06:19:03;98760.13;;;-0.36;78.89
35848;BME280;22332;51.954;20.118;2023-03-07T06:22:08;98757.61;;;-0.31;78.81
35848;BME280;22332;51.954;20.118;2023-03-07T06:25:14;98748.94;;;-0.29;78.51
35848;BME280;22332;51.954;20.118;2023-03-07T06:28:21;98745.29;;;-0.32;78.46
35848;BME280;22332;51.954;20.118;2023-03-07T06:31:27;98748.21;;;-0.35;78.51
35848;BME280;22332;51.954;20.118;2023-03-07T06:34:33;98742.05;;;-0.37;78.59
35848;BME280;22332;51.954;20.118;2023-03-07T06:37:39;98738.13;;;-0.36;78.55
35848;BME280;22332;51.954;20.118;2023-03-07T06:40:48;98736.56;;;-0.27;78.57
35848;BME280;22332;51.954;20.118;2023-03-07T06:43:59;98737.76;;;-0.12;78.35
35848;BME280;22332;51.954;20.118;2023-03-07T06:47:07;98735.13;;;-0.01;77.99
35848;BME280;22332;51.954;20.118;2023-03-07T06:50:14;98726.98;;;0.05;77.85
35848;BME280;22332;51.954;20.118;2023-03-07T06:53:20;98726.88;;;0.09;77.66
35848;BME280;22332;51.954;20.118;2023-03-07T06:56:26;98721.23;;;0.09;77.57
35848;BME280;22332;51.954;20.118;2023-03-07T06:59:35;98714.71;;;0.12;77.59
35848;BME280;22332;51.954;20.118;2023-03-07T07:02:41;98718.11;;;0.11;77.44
35848;BME280;22332;51.954;20.118;2023-03-07T07:05:47;98716.77;;;0.13;77.68
35848;BME280;22332;51.954;20.118;2023-03-07T07:08:55;98712.61;;;0.19;77.58
35848;BME280;22332;51.954;20.118;2023-03-07T07:12:03;98707.77;;;0.27;77.53
35848;BME280;22332;51.954;20.118;2023-03-07T07:15:11;98705.14;;;0.31;77.36
35848;BME280;22332;51.954;20.118;2023-03-07T07:18:17;98697.47;;;0.34;77.20
35848;BME280;22332;51.954;20.118;2023-03-07T07:21:22;98696.11;;;0.45;77.33
35848;BME280;22332;51.954;20.118;2023-03-07T07:24:28;98692.36;;;0.56;77.45
35848;BME280;22332;51.954;20.118;2023-03-07T07:27:35;98690.46;;;0.70;77.62
35848;BME280;22332;51.954;20.118;2023-03-07T07:30:41;98684.35;;;0.83;77.44
35848;BME280;22332;51.954;20.118;2023-03-07T07:33:48;98681.45;;;0.92;77.47
35848;BME280;22332;51.954;20.118;2023-03-07T07:36:55;98676.66;;;1.08;77.62
35848;BME280;22332;51.954;20.118;2023-03-07T07:40:01;98675.02;;;1.14;77.36
35848;BME280;22332;51.954;20.118;2023-03-07T07:43:14;98670.85;;;1.22;77.48
35848;BME280;22332;51.954;20.118;2023-03-07T07:46:27;98667.16;;;1.35;77.57
35848;BME280;22332;51.954;20.118;2023-03-07T07:49:33;98663.99;;;1.49;77.56
35848;BME280;22332;51.954;20.118;2023-03-07T07:52:40;98664.94;;;1.62;77.40
35848;BME280;22332;51.954;20.118;2023-03-07T07:55:49;98655.62;;;1.74;77.35
35848;BME280;22332;51.954;20.118;2023-03-07T07:58:55;98649.55;;;1.85;77.40
35848;BME280;22332;51.954;20.118;2023-03-07T08:02:01;98648.48;;;1.91;77.41
35848;BME280;22332;51.954;20.118;2023-03-07T08:05:09;98642.23;;;2.03;77.68
35848;BME280;22332;51.954;20.118;2023-03-07T08:08:16;98636.70;;;2.21;77.58
35848;BME280;22332;51.954;20.118;2023-03-07T08:11:23;98628.40;;;2.39;77.46
35848;BME280;22332;51.954;20.118;2023-03-07T08:14:29;98623.63;;;2.61;77.69
35848;BME280;22332;51.954;20.118;2023-03-07T08:17:34;98619.14;;;2.84;77.91
35848;BME280;22332;51.954;20.118;2023-03-07T08:20:40;98618.09;;;3.06;77.74
35848;BME280;22332;51.954;20.118;2023-03-07T08:23:46;98618.56;;;3.24;77.59
35848;BME280;22332;51.954;20.118;2023-03-07T08:26:51;98615.91;;;3.37;77.65
35848;BME280;22332;51.954;20.118;2023-03-07T08:29:57;98603.52;;;3.56;77.69
35848;BME280;22332;51.954;20.118;2023-03-07T08:33:03;98603.38;;;3.81;77.57
35848;BME280;22332;51.954;20.118;2023-03-07T08:36:09;98601.71;;;3.98;77.66
35848;BME280;22332;51.954;20.118;2023-03-07T08:39:15;98606.05;;;4.16;77.53
35848;BME280;22332;51.954;20.118;2023-03-07T08:42:21;98600.46;;;4.35;77.44
35848;BME280;22332;51.954;20.118;2023-03-07T08:45:26;98600.90;;;4.52;77.61
35848;BME280;22332;51.954;20.118;2023-03-07T08:48:32;98596.92;;;4.67;77.58
35848;BME280;22332;51.954;20.118;2023-03-07T08:51:38;98589.27;;;4.82;77.46
35848;BME280;22332;51.954;20.118;2023-03-07T08:54:43;98582.39;;;4.90;77.42
35848;BME280;22332;51.954;20.118;2023-03-07T08:57:49;98584.04;;;4.95;77.27
35848;BME280;22332;51.954;20.118;2023-03-07T09:00:55;98582.33;;;5.03;77.15
35848;BME280;22332;51.954;20.118;2023-03-07T09:04:02;98581.58;;;5.07;76.95
35848;BME280;22332;51.954;20.118;2023-03-07T09:07:08;98579.92;;;5.09;77.19
35848;BME280;22332;51.954;20.118;2023-03-07T09:10:14;98580.00;;;5.19;76.95
35848;BME280;22332;51.954;20.118;2023-03-07T09:13:20;98578.34;;;5.24;77.15
35848;BME280;22332;51.954;20.118;2023-03-07T09:16:26;98571.39;;;5.23;76.90
35848;BME280;22332;51.954;20.118;2023-03-07T09:19:32;98569.72;;;5.18;76.75
35848;BME280;22332;51.954;20.118;2023-03-07T09:22:38;98567.38;;;5.09;76.98
35848;BME280;22332;51.954;20.118;2023-03-07T09:25:44;98561.38;;;5.09;76.87
35848;BME280;22332;51.954;20.118;2023-03-07T09:28:49;98556.93;;;5.01;76.91
35848;BME280;22332;51.954;20.118;2023-03-07T09:31:55;98555.98;;;4.92;77.11
35848;BME280;22332;51.954;20.118;2023-03-07T09:35:01;98550.09;;;4.84;76.88
35848;BME280;22332;51.954;20.118;2023-03-07T09:38:07;98539.31;;;4.76;77.13
35848;BME280;22332;51.954;20.118;2023-03-07T09:41:34;98540.29;;;4.69;76.74
35848;BME280;22332;51.954;20.118;2023-03-07T09:44:56;98535.48;;;4.67;77.08
35848;BME280;22332;51.954;20.118;2023-03-07T09:48:53;98533.64;;;4.62;77.36
35848;BME280;22332;51.954;20.118;2023-03-07T09:52:02;98533.23;;;4.65;77.41
35848;BME280;22332;51.954;20.118;2023-03-07T09:55:16;98530.55;;;4.66;77.48
35848;BME280;22332;51.954;20.118;2023-03-07T09:58:24;98521.67;;;4.62;77.31
35848;BME280;22332;51.954;20.118;2023-03-07T10:01:32;98516.42;;;4.57;77.43
35848;BME280;22332;51.954;20.118;2023-03-07T10:04:44;98509.64;;;4.56;77.35
35848;BME280;22332;51.954;20.118;2023-03-07T10:07:53;98500.60;;;4.51;77.57
35848;BME280;22332;51.954;20.118;2023-03-07T10:11:09;98491.19;;;4.50;77.63
35848;BME280;22332;51.954;20.118;2023-03-07T10:14:39;98485.58;;;4.50;77.51
35848;BME280;22332;51.954;20.118;2023-03-07T10:18:14;98477.34;;;4.56;77.76
35848;BME280;22332;51.954;20.118;2023-03-07T10:21:26;98472.32;;;4.71;77.95
35848;BME280;22332;51.954;20.118;2023-03-07T10:25:14;98462.55;;;4.81;77.48
35848;BME280;22332;51.954;20.118;2023-03-07T10:28:25;98465.67;;;4.89;77.45
35848;BME280;22332;51.954;20.118;2023-03-07T10:31:37;98461.02;;;4.87;77.38
35848;BME280;22332;51.954;20.118;2023-03-07T10:34:43;98453.92;;;4.92;77.49
35848;BME280;22332;51.954;20.118;2023-03-07T10:37:52;98454.58;;;5.01;77.09
35848;BME280;22332;51.954;20.118;2023-03-07T10:41:02;98454.39;;;5.04;77.20
35848;BME280;22332;51.954;20.118;2023-03-07T10:44:16;98448.48;;;5.10;77.47
35848;BME280;22332;51.954;20.118;2023-03-07T10:47:24;98435.84;;;5.22;77.46
35848;BME280;22332;51.954;20.118;2023-03-07T10:50:37;98426.70;;;5.29;77.26
35848;BME280;22332;51.954;20.118;2023-03-07T10:53:47;98416.73;;;5.43;77.43
35848;BME280;22332;51.954;20.118;2023-03-07T10:57:06;98407.66;;;5.64;77.28
35848;BME280;22332;51.954;20.118;2023-03-07T11:00:20;98405.76;;;5.93;77.02
35848;BME280;22332;51.954;20.118;2023-03-07T11:03:37;98398.91;;;6.20;76.94
35848;BME280;22332;51.954;20.118;2023-03-07T11:06:54;98389.14;;;6.45;76.55
35848;BME280;22332;51.954;20.118;2023-03-07T11:10:22;98386.56;;;6.64;75.87
35848;BME280;22332;51.954;20.118;2023-03-07T11:13:29;98381.52;;;6.79;75.93
35848;BME280;22332;51.954;20.118;2023-03-07T11:16:40;98372.95;;;6.90;75.81
35848;BME280;22332;51.954;20.118;2023-03-07T11:19:47;98367.46;;;6.91;75.81
35848;BME280;22332;51.954;20.118;2023-03-07T11:23:16;98357.05;;;6.92;75.87
35848;BME280;22332;51.954;20.118;2023-03-07T11:26:23;98355.42;;;7.04;75.62
35848;BME280;22332;51.954;20.118;2023-03-07T11:29:29;98352.92;;;7.20;75.24
35848;BME280;22332;51.954;20.118;2023-03-07T11:32:41;98350.63;;;7.22;75.10
35848;BME280;22332;51.954;20.118;2023-03-07T11:35:57;98343.43;;;7.21;74.95
35848;BME280;22332;51.954;20.118;2023-03-07T11:39:12;98338.71;;;7.10;73.66
35848;BME280;22332;51.954;20.118;2023-03-07T11:42:22;98334.11;;;7.01;73.95
35848;BME280;22332;51.954;20.118;2023-03-07T11:45:33;98327.39;;;7.04;74.18
35848;BME280;22332;51.954;20.118;2023-03-07T11:48:54;98322.48;;;7.10;73.80
35848;BME280;22332;51.954;20.118;2023-03-07T11:52:11;98316.05;;;7.16;73.61
35848;BME280;22332;51.954;20.118;2023-03-07T11:55:27;98310.70;;;7.26;73.91
35848;BME280;22332;51.954;20.118;2023-03-07T11:58:47;98304.21;;;7.34;73.89
35848;BME280;22332;51.954;20.118;2023-03-07T12:02:01;98298.17;;;7.42;73.84
35848;BME280;22332;51.954;20.118;2023-03-07T12:05:23;98291.27;;;7.42;73.09
35848;BME280;22332;51.954;20.118;2023-03-07T12:08:39;98289.77;;;7.40;72.81
35848;BME280;22332;51.954;20.118;2023-03-07T12:11:55;98291.02;;;7.41;72.93
35848;BME280;22332;51.954;20.118;2023-03-07T12:15:23;98283.71;;;7.39;72.80
35848;BME280;22332;51.954;20.118;2023-03-07T12:18:45;98279.21;;;7.41;72.10
35848;BME280;22332;51.954;20.118;2023-03-07T12:22:24;98274.93;;;7.44;71.69
35848;BME280;22332;51.954;20.118;2023-03-07T12:25:33;98273.56;;;7.51;71.31
35848;BME280;22332;51.954;20.118;2023-03-07T12:28:44;98266.20;;;7.55;71.75
35848;BME280;22332;51.954;20.118;2023-03-07T12:31:57;98256.79;;;7.63;71.27
35848;BME280;22332;51.954;20.118;2023-03-07T12:35:13;98250.60;;;7.67;71.70
35848;BME280;22332;51.954;20.118;2023-03-07T12:38:28;98251.23;;;7.73;70.89
35848;BME280;22332;51.954;20.118;2023-03-07T12:41:49;98248.93;;;7.75;70.61
35848;BME280;22332;51.954;20.118;2023-03-07T12:44:59;98253.29;;;7.80;69.38
35848;BME280;22332;51.954;20.118;2023-03-07T12:48:15;98249.91;;;7.74;68.53
35848;BME280;22332;51.954;20.118;2023-03-07T12:51:25;98256.00;;;7.68;68.70
35848;BME280;22332;51.954;20.118;2023-03-07T12:54:36;98256.91;;;7.63;68.34
35848;BME280;22332;51.954;20.118;2023-03-07T12:57:47;98267.14;;;7.53;67.73
35848;BME280;22332;51.954;20.118;2023-03-07T13:00:58;98266.59;;;7.43;69.02
35848;BME280;22332;51.954;20.118;2023-03-07T13:04:10;98262.63;;;7.30;68.33
35848;BME280;22332;51.954;20.118;2023-03-07T13:07:21;98266.50;;;7.17;68.58
35848;BME280;22332;51.954;20.118;2023-03-07T13:10:28;98264.38;;;7.00;67.96
35848;BME280;22332;51.954;20.118;2023-03-07T13:13:55;98261.59;;;6.89;68.37
35848;BME280;22332;51.954;20.118;2023-03-07T13:17:01;98260.73;;;6.80;68.49
35848;BME280;22332;51.954;20.118;2023-03-07T13:20:42;98259.55;;;6.73;68.61
35848;BME280;22332;51.954;20.118;2023-03-07T13:23:48;98261.64;;;6.59;68.58
35848;BME280;22332;51.954;20.118;2023-03-07T13:26:55;98263.06;;;6.47;67.95
35848;BME280;22332;51.954;20.118;2023-03-07T13:30:16;98263.90;;;6.34;68.01
35848;BME280;22332;51.954;20.118;2023-03-07T13:33:27;98260.16;;;6.21;67.80
35848;BME280;22332;51.954;20.118;2023-03-07T13:36:35;98256.10;;;6.12;68.38
35848;BME280;22332;51.954;20.118;2023-03-07T13:39:59;98253.45;;;6.03;68.33
35848;BME280;22332;51.954;20.118;2023-03-07T13:47:03;98248.51;;;5.85;68.37
35848;BME280;22332;51.954;20.118;2023-03-07T13:50:37;98251.05;;;5.76;68.20
35848;BME280;22332;51.954;20.118;2023-03-07T13:53:45;98244.02;;;5.67;67.91
35848;BME280;22332;51.954;20.118;2023-03-07T13:56:51;98239.01;;;5.61;68.18
35848;BME280;22332;51.954;20.118;2023-03-07T13:59:57;98237.20;;;5.58;68.39
35848;BME280;22332;51.954;20.118;2023-03-07T14:03:02;98229.48;;;5.56;68.58
35848;BME280;22332;51.954;20.118;2023-03-07T14:06:20;98226.56;;;5.56;68.29
35848;BME280;22332;51.954;20.118;2023-03-07T14:09:41;98220.24;;;5.57;68.45
35848;BME280;22332;51.954;20.118;2023-03-07T14:16:26;98213.69;;;5.57;68.43
35848;BME280;22332;51.954;20.118;2023-03-07T14:19:47;98211.08;;;5.59;68.65
35848;BME280;22332;51.954;20.118;2023-03-07T14:23:08;98202.73;;;5.60;68.44
35848;BME280;22332;51.954;20.118;2023-03-07T14:26:19;98196.40;;;5.64;68.29
35848;BME280;22332;51.954;20.118;2023-03-07T14:29:27;98190.48;;;5.70;68.69
35848;BME280;22332;51.954;20.118;2023-03-07T14:32:34;98189.02;;;5.79;68.47
35848;BME280;22332;51.954;20.118;2023-03-07T14:35:42;98185.66;;;5.86;68.27
35848;BME280;22332;51.954;20.118;2023-03-07T14:38:49;98184.66;;;5.89;68.14
35848;BME280;22332;51.954;20.118;2023-03-07T14:42:03;98180.17;;;5.93;68.02
35848;BME280;22332;51.954;20.118;2023-03-07T14:45:21;98181.36;;;5.94;68.50
35848;BME280;22332;51.954;20.118;2023-03-07T14:48:38;98176.69;;;5.93;67.76
35848;BME280;22332;51.954;20.118;2023-03-07T14:51:48;98174.69;;;5.92;68.26
35848;BME280;22332;51.954;20.118;2023-03-07T14:54:54;98171.49;;;5.94;68.20
35848;BME280;22332;51.954;20.118;2023-03-07T14:58:03;98170.23;;;5.91;68.05
35848;BME280;22332;51.954;20.118;2023-03-07T15:01:13;98163.39;;;5.87;67.98
35848;BME280;22332;51.954;20.118;2023-03-07T15:04:27;98160.28;;;5.86;68.03
35848;BME280;22332;51.954;20.118;2023-03-07T15:07:35;98158.09;;;5.84;67.85
35848;BME280;22332;51.954;20.118;2023-03-07T15:10:42;98157.81;;;5.80;67.66
35848;BME280;22332;51.954;20.118;2023-03-07T15:13:52;98159.45;;;5.77;67.71
35848;BME280;22332;51.954;20.118;2023-03-07T15:17:02;98156.56;;;5.72;68.07
35848;BME280;22332;51.954;20.118;2023-03-07T15:20:13;98156.55;;;5.69;68.02
35848;BME280;22332;51.954;20.118;2023-03-07T15:23:22;98154.27;;;5.65;67.81
35848;BME280;22332;51.954;20.118;2023-03-07T15:26:31;98149.66;;;5.59;67.86
35848;BME280;22332;51.954;20.118;2023-03-07T15:29:36;98147.10;;;5.55;68.24
35848;BME280;22332;51.954;20.118;2023-03-07T15:32:48;98145.95;;;5.52;67.89
35848;BME280;22332;51.954;20.118;2023-03-07T15:36:26;98139.88;;;5.46;67.98
35848;BME280;22332;51.954;20.118;2023-03-07T15:39:33;98143.33;;;5.43;67.83
35848;BME280;22332;51.954;20.118;2023-03-07T15:42:50;98140.02;;;5.38;68.12
35848;BME280;22332;51.954;20.118;2023-03-07T15:46:02;98142.66;;;5.35;67.95
35848;BME280;22332;51.954;20.118;2023-03-07T15:49:23;98136.55;;;5.29;67.94
35848;BME280;22332;51.954;20.118;2023-03-07T15:52:32;98139.70;;;5.23;67.98
35848;BME280;22332;51.954;20.118;2023-03-07T15:55:40;98135.68;;;5.18;67.71
35848;BME280;22332;51.954;20.118;2023-03-07T15:58:46;98132.88;;;5.15;67.87
35848;BME280;22332;51.954;20.118;2023-03-07T16:01:53;98130.78;;;5.11;67.95
35848;BME280;22332;51.954;20.118;2023-03-07T16:04:59;98125.27;;;5.07;67.99
35848;BME280;22332;51.954;20.118;2023-03-07T16:08:11;98118.70;;;5.03;68.14
35848;BME280;22332;51.954;20.118;2023-03-07T16:11:17;98113.73;;;4.98;68.15
35848;BME280;22332;51.954;20.118;2023-03-07T16:14:24;98114.88;;;4.94;68.00
35848;BME280;22332;51.954;20.118;2023-03-07T16:17:34;98115.83;;;4.92;68.18
35848;BME280;22332;51.954;20.118;2023-03-07T16:20:41;98110.54;;;4.87;68.17
35848;BME280;22332;51.954;20.118;2023-03-07T16:23:48;98105.00;;;4.83;68.19
35848;BME280;22332;51.954;20.118;2023-03-07T16:26:54;98101.48;;;4.79;68.11
35848;BME280;22332;51.954;20.118;2023-03-07T16:30:01;98100.79;;;4.75;68.20
35848;BME280;22332;51.954;20.118;2023-03-07T16:33:10;98100.50;;;4.71;68.23
35848;BME280;22332;51.954;20.118;2023-03-07T16:36:16;98108.43;;;4.69;68.13
35848;BME280;22332;51.954;20.118;2023-03-07T16:39:22;98101.98;;;4.65;68.28
35848;BME280;22332;51.954;20.118;2023-03-07T16:42:28;98097.68;;;4.61;68.12
35848;BME280;22332;51.954;20.118;2023-03-07T16:45:34;98089.61;;;4.57;68.26